createdAt,value
2019-05-26T09:21:30.664Z,5.00
2019-05-26T09:26:35.218Z,4.37
2019-05-26T09:31:40.151Z,3.70
2019-05-26T09:36:44.620Z,3.57
2019-05-26T09:41:49.096Z,3.30
2019-05-26T09:46:53.618Z,3.43
2019-05-26T09:51:58.026Z,3.60
2019-05-26T09:57:02.607Z,3.43
2019-05-26T10:02:07.338Z,3.20
2019-05-26T10:07:15.648Z,3.62
2019-05-26T10:12:18.045Z,3.30
2019-05-26T10:17:23.334Z,2.92
2019-05-26T10:22:28.174Z,3.10
2019-05-26T10:27:32.848Z,3.30
2019-05-26T10:32:37.468Z,3.30
2019-05-26T10:37:41.972Z,3.23
2019-05-26T10:42:46.646Z,3.20
2019-05-26T10:47:51.242Z,3.20
2019-05-26T10:52:57.205Z,3.23
2019-05-26T10:58:01.916Z,3.40
2019-05-26T11:03:06.370Z,3.73
2019-05-26T11:08:10.971Z,3.83
2019-05-26T11:13:15.643Z,4.00
2019-05-26T11:18:20.107Z,3.50
2019-05-26T11:23:24.958Z,3.37
2019-05-26T11:28:29.572Z,3.90
2019-05-26T11:33:34.032Z,3.63
2019-05-26T11:38:38.634Z,3.47
2019-05-26T11:43:45.207Z,3.67
2019-05-26T11:48:50.759Z,3.40
2019-05-26T11:53:55.365Z,3.87
2019-05-26T11:59:00.142Z,3.30
2019-05-26T12:04:05.446Z,3.47
2019-05-26T12:09:10.355Z,3.37
2019-05-26T12:14:14.851Z,3.20
2019-05-26T12:19:19.429Z,3.03
2019-05-26T12:24:24.217Z,3.10
2019-05-26T12:29:28.718Z,3.03
2019-05-26T12:34:33.508Z,3.05
2019-05-26T12:39:38.230Z,2.73
2019-05-26T12:44:49.535Z,3.23
2019-05-26T12:49:49.102Z,3.43
2019-05-26T12:54:55.803Z,2.90
2019-05-26T13:00:02.455Z,3.00
2019-05-26T13:05:08.040Z,2.90
2019-05-26T13:10:12.594Z,2.80
2019-05-26T13:15:19.090Z,2.62
2019-05-26T13:20:24.916Z,2.90
2019-05-26T13:25:29.319Z,2.70
2019-05-26T13:30:34.785Z,3.03
2019-05-26T13:35:39.578Z,2.70
2019-05-26T13:40:44.016Z,2.90
2019-05-26T13:45:48.660Z,3.60
2019-05-26T13:50:53.117Z,2.90
2019-05-26T13:55:57.983Z,3.20
2019-05-26T14:01:02.472Z,2.60
2019-05-26T14:06:07.122Z,2.50
2019-05-26T14:11:11.656Z,3.00
2019-05-26T14:16:16.576Z,2.62
2019-05-26T14:21:22.242Z,2.95
2019-05-26T14:26:26.866Z,2.40
2019-05-26T14:31:31.249Z,2.40
2019-05-26T14:36:36.247Z,2.27
2019-05-26T14:41:40.787Z,2.20
2019-05-26T14:46:45.278Z,2.37
2019-05-26T14:51:50.014Z,2.40
2019-05-26T14:56:54.501Z,2.93
2019-05-26T15:01:59.281Z,2.50
2019-05-26T15:07:04.055Z,2.67
2019-05-26T15:12:08.677Z,2.80
2019-05-26T15:17:13.210Z,3.07
2019-05-26T15:22:17.651Z,2.80
2019-05-26T15:27:22.098Z,2.40
2019-05-26T15:32:27.012Z,2.57
2019-05-26T15:37:31.462Z,2.60
2019-05-26T15:42:36.402Z,2.77
2019-05-26T15:47:41.207Z,2.50
2019-05-26T15:52:45.674Z,2.50
2019-05-26T15:57:50.173Z,2.77
2019-05-26T16:02:54.966Z,2.43
2019-05-26T16:07:59.719Z,2.50
2019-05-26T16:13:05.445Z,2.67
2019-05-26T16:18:09.927Z,2.70
2019-05-26T16:23:14.411Z,2.65
2019-05-26T16:28:18.850Z,2.60
2019-05-26T16:33:23.379Z,2.80
2019-05-26T16:38:27.958Z,2.40
2019-05-26T16:43:32.402Z,2.63
2019-05-26T16:48:37.427Z,2.70
2019-05-26T16:53:42.294Z,2.67
2019-05-26T16:58:46.810Z,2.50
2019-05-26T17:03:51.707Z,2.72
2019-05-26T17:08:56.286Z,2.50
2019-05-26T17:14:00.875Z,2.70
2019-05-26T17:19:05.636Z,2.53
2019-05-26T17:24:10.142Z,2.80
2019-05-26T17:29:14.707Z,3.07
2019-05-26T17:34:19.294Z,3.00
2019-05-26T17:39:23.806Z,2.67
2019-05-26T17:44:28.453Z,3.10
2019-05-26T17:49:32.928Z,2.83
2019-05-26T17:54:37.409Z,2.90
2019-05-26T17:59:42.270Z,3.27
2019-05-26T18:04:46.702Z,3.73
2019-05-26T18:09:52.214Z,5.70
2019-05-26T18:14:56.749Z,10.17
2019-05-26T18:20:01.281Z,10.00
2019-05-26T18:25:06.466Z,4.13
2019-05-26T18:30:11.443Z,3.30
2019-05-26T18:35:16.039Z,2.70
2019-05-26T18:40:20.534Z,2.97
2019-05-26T18:45:25.046Z,2.70
2019-05-26T18:50:29.536Z,2.70
2019-05-26T18:55:34.362Z,2.50
2019-05-26T19:00:38.851Z,2.93
2019-05-26T19:05:43.404Z,2.70
2019-05-26T19:10:47.865Z,2.93
2019-05-26T19:15:52.843Z,3.63
2019-05-26T19:20:57.683Z,3.37
2019-05-26T19:26:02.274Z,3.72
2019-05-26T19:31:06.766Z,4.30
2019-05-26T19:36:11.685Z,4.70
2019-05-26T19:41:16.466Z,5.60
2019-05-26T19:46:20.939Z,5.10
2019-05-26T19:51:25.598Z,4.67
2019-05-26T19:56:30.054Z,4.58
2019-05-26T20:01:35.154Z,4.53
2019-05-26T20:06:43.577Z,4.40
2019-05-26T20:11:46.303Z,3.60
2019-05-26T20:16:51.615Z,3.90
2019-05-26T20:21:56.346Z,4.30
2019-05-26T20:27:00.914Z,4.13
2019-05-26T20:32:05.541Z,4.00
2019-05-26T20:37:10.827Z,3.55
2019-05-26T20:42:15.713Z,4.30
2019-05-26T20:47:20.350Z,4.30
2019-05-26T20:52:24.897Z,4.10
2019-05-26T20:57:29.426Z,4.80
2019-05-26T21:02:34.016Z,4.10
2019-05-26T21:07:38.503Z,4.37
2019-05-26T21:12:43.402Z,3.93
2019-05-26T21:17:47.836Z,3.67
2019-05-26T21:22:52.391Z,3.80
2019-05-26T21:27:56.834Z,4.20
2019-05-26T21:33:01.882Z,3.55
2019-05-26T21:38:06.403Z,3.90
2019-05-26T21:43:10.907Z,3.90
2019-05-26T21:48:15.328Z,4.20
2019-05-26T21:53:19.818Z,4.00
2019-05-26T21:58:24.440Z,3.72
2019-05-26T22:03:28.956Z,4.07
2019-05-26T22:08:33.611Z,4.20
2019-05-26T22:13:38.538Z,3.80
2019-05-26T22:18:43.130Z,4.07
2019-05-26T22:23:47.562Z,3.60
2019-05-26T22:28:51.978Z,3.80
2019-05-26T22:33:56.448Z,4.50
2019-05-26T22:39:00.962Z,4.40
2019-05-26T22:44:05.475Z,4.30
2019-05-26T22:49:10.090Z,4.57
2019-05-26T22:54:14.683Z,4.10
2019-05-26T22:59:19.330Z,4.08
2019-05-26T23:04:23.763Z,4.60
2019-05-26T23:09:28.310Z,4.87
2019-05-26T23:14:32.750Z,5.07
2019-05-26T23:19:37.323Z,4.97
2019-05-26T23:24:41.794Z,4.50
2019-05-26T23:29:46.454Z,3.90
2019-05-26T23:34:50.948Z,4.53
2019-05-26T23:39:55.693Z,4.97
2019-05-26T23:45:00.378Z,5.00
2019-05-26T23:50:05.317Z,4.73
2019-05-26T23:55:10.301Z,5.37
